Stephenville, Canada
Current Conditions -  °F | °C
As of 3:00 AM on Sunday 26 Oct 2014 (Local Time) from CYJT Reporting Station
Overcast Overcast  
Wind Chill: 37°   Ceiling: 2500
Heat Index: 43°   Visibility: 15mi
Dew Point: 39°   Wind: 12mph
Humidity: 87%   Direction: 70°ENE
Pressure: 29.53"   Gusts: 21mph
Location:  48.55°N, 58.58°W
Report Text: CYJT 260500Z 07010G18KT 15SM OVC025 06/04 A2953 RMK SC8 SLP999
Loading
Personal Weather Stations






























Interactive Weather Map New forecast layout! Learn more

10-Day Weather Forecast

Advertisements
Track Severe Weather on mobile